Time;durP1;ratioP1;P1;durP2;ratioP2;P2;SDS_P1;SDS_P2;PMS_P1;PMS_P2;Temp;Humidity;BMP_temperature;BMP_pressure;BME280_temperature;BME280_humidity;BME280_pressure;Samples;Min_cycle;Max_cycle;Signal;HPM_P1;HPM_P2
2022/08/08 00:00:33;;;;;;;;;;;;;;;;;;5016159;28;19913;-27
2022/08/08 00:02:59;;;;;;;;;;;;;;;;;;5015603;28;19929;-27
2022/08/08 00:05:25;;;;;;;;;;;;;;;;;;5015837;28;19909;-27
2022/08/08 00:07:51;;;;;;;;;;;;;;;;;;5016112;28;19923;-27
2022/08/08 00:10:17;;;;;;;;;;;;;;;;;;5016017;28;19914;-27
2022/08/08 00:12:44;;;;;;;;;;;;;;;;;;5016170;28;19981;-27
2022/08/08 00:15:10;;;;;;;;;;;;;;;;;;5015637;28;20262;-27
2022/08/08 00:17:36;;;;;;;;;;;;;;;;;;5015724;28;20013;-27
2022/08/08 00:20:02;;;;;;;;;;;;;;;;;;5015641;28;19918;-27
2022/08/08 00:22:28;;;;;;;;;;;;;;;;;;5015488;28;19956;-27
2022/08/08 00:24:54;;;;;;;;;;;;;;;;;;5015854;28;19924;-27
2022/08/08 00:27:20;;;;;;;;;;;;;;;;;;5014581;28;19913;-27
2022/08/08 00:29:46;;;;;;;;;;;;;;;;;;5015748;28;20028;-27
2022/08/08 00:32:12;;;;;;;;;;;;;;;;;;5015406;28;19972;-27
2022/08/08 00:37:22;;;;;;;;;;;;;;;;;;5015759;28;19916;-27
2022/08/08 00:39:49;;;;;;;;;;;;;;;;;;5015645;28;19925;-27
2022/08/08 00:42:15;;;;;;;;;;;;;;;;;;5015266;28;19924;-27
2022/08/08 00:44:41;;;;;;;;;;;;;;;;;;5015348;28;19917;-27
2022/08/08 00:47:07;;;;;;;;;;;;;;;;;;5015607;28;19909;-27
2022/08/08 00:49:33;;;;;;;;;;;;;;;;;;5015565;28;19917;-27
2022/08/08 00:51:59;;;;;;;;;;;;;;;;;;5015242;28;19910;-27
2022/08/08 00:54:25;;;;;;;;;;;;;;;;;;5015233;28;19981;-27
2022/08/08 00:56:51;;;;;;;;;;;;;;;;;;5015161;28;19971;-27
2022/08/08 00:59:17;;;;;;;;;;;;;;;;;;5015459;28;19921;-27
2022/08/08 01:01:43;;;;;;;;;;;;;;;;;;5015087;28;19917;-27
2022/08/08 01:04:09;;;;;;;;;;;;;;;;;;5014889;28;19930;-27
2022/08/08 01:06:35;;;;;;;;;;;;;;;;;;5015113;28;19980;-27
2022/08/08 01:09:01;;;;;;;;;;;;;;;;;;5015170;28;19972;-27
2022/08/08 01:11:27;;;;;;;;;;;;;;;;;;5015343;28;20238;-27
2022/08/08 01:13:53;;;;;;;;;;;;;;;;;;5014998;28;19917;-27
2022/08/08 01:16:19;;;;;;;;;;;;;;;;;;5015053;28;20359;-27
2022/08/08 01:18:45;;;;;;;;;;;;;;;;;;5015064;28;19913;-27
2022/08/08 01:21:11;;;;;;;;;;;;;;;;;;5014942;28;20014;-27
2022/08/08 01:23:37;;;;;;;;;;;;;;;;;;5013952;28;20370;-27
2022/08/08 01:26:03;;;;;;;;;;;;;;;;;;5015279;28;19963;-27
2022/08/08 01:28:29;;;;;;;;;;;;;;;;;;5018698;28;19913;-27
2022/08/08 01:30:55;;;;;;;;;;;;;;;;;;5019016;28;19984;-27
2022/08/08 01:33:21;;;;;;;;;;;;;;;;;;5018867;28;19945;-27
2022/08/08 01:35:47;;;;;;;;;;;;;;;;;;5018617;28;19957;-27
2022/08/08 01:38:13;;;;;;;;;;;;;;;;;;5018823;28;19924;-27
2022/08/08 01:40:39;;;;;;;;;;;;;;;;;;5018785;28;20261;-27
2022/08/08 01:43:05;;;;;;;;;;;;;;;;;;5018440;28;20323;-27
2022/08/08 01:45:31;;;;;;;;;;;;;;;;;;5018690;28;19971;-27
2022/08/08 01:47:57;;;;;;;;;;;;;;;;;;5018376;28;19967;-27
2022/08/08 01:50:23;;;;;;;;;;;;;;;;;;5018577;28;19925;-27
2022/08/08 01:52:49;;;;;;;;;;;;;;;;;;5018221;28;20340;-27
2022/08/08 01:55:15;;;;;;;;;;;;;;;;;;5018234;28;19913;-27
2022/08/08 01:57:41;;;;;;;;;;;;;;;;;;5018218;28;19960;-27
2022/08/08 02:00:07;;;;;;;;;;;;;;;;;;5018143;28;19956;-27
2022/08/08 02:02:35;;;;;;;;;;;;;;;;;;5017808;28;19996;-27
2022/08/08 02:05:01;;;;;;;;;;;;;;;;;;5018368;28;19963;-27
2022/08/08 02:07:27;;;;;;;;;;;;;;;;;;5018074;28;19949;-27
2022/08/08 02:09:53;;;;;;;;;;;;;;;;;;5017986;28;19917;-27
2022/08/08 02:12:19;;;;;;;;;;;;;;;;;;5017912;28;20304;-27
2022/08/08 02:14:45;;;;;;;;;;;;;;;;;;5017881;28;19960;-27
2022/08/08 02:17:11;;;;;;;;;;;;;;;;;;5018126;28;20000;-27
2022/08/08 02:19:37;;;;;;;;;;;;;;;;;;5017789;28;19996;-27
2022/08/08 02:24:48;;;;;;;;;;;;;;;;;;5018078;28;19920;-27
2022/08/08 02:27:14;;;;;;;;;;;;;;;;;;5017660;28;19960;-27
2022/08/08 02:29:40;;;;;;;;;;;;;;;;;;5017630;28;19960;-27
2022/08/08 02:32:06;;;;;;;;;;;;;;;;;;5017782;28;20345;-27
2022/08/08 02:34:32;;;;;;;;;;;;;;;;;;5017505;28;19929;-27
2022/08/08 02:36:58;;;;;;;;;;;;;;;;;;5017409;28;19917;-27
2022/08/08 02:39:24;;;;;;;;;;;;;;;;;;5017220;28;19961;-27
2022/08/08 02:41:50;;;;;;;;;;;;;;;;;;5017278;28;20323;-27
2022/08/08 02:44:16;;;;;;;;;;;;;;;;;;5017313;28;19923;-27
2022/08/08 02:46:42;;;;;;;;;;;;;;;;;;5017287;28;19952;-27
2022/08/08 02:49:08;;;;;;;;;;;;;;;;;;5017221;28;20337;-27
2022/08/08 02:51:34;;;;;;;;;;;;;;;;;;5017222;28;19948;-27
2022/08/08 02:54:00;;;;;;;;;;;;;;;;;;5017380;28;20297;-27
2022/08/08 02:56:26;;;;;;;;;;;;;;;;;;5017093;28;19963;-28
2022/08/08 02:58:52;;;;;;;;;;;;;;;;;;5017295;28;20226;-28
2022/08/08 03:01:18;;;;;;;;;;;;;;;;;;5017287;28;19941;-27
2022/08/08 03:03:44;;;;;;;;;;;;;;;;;;5016708;28;20237;-27
2022/08/08 03:06:10;;;;;;;;;;;;;;;;;;5016943;28;19910;-28
2022/08/08 03:08:36;;;;;;;;;;;;;;;;;;5016889;28;19917;-28
2022/08/08 03:11:02;;;;;;;;;;;;;;;;;;5016818;28;19983;-28
2022/08/08 03:13:28;;;;;;;;;;;;;;;;;;5016738;28;19917;-27
2022/08/08 03:15:54;;;;;;;;;;;;;;;;;;5017056;28;20007;-28
2022/08/08 03:18:20;;;;;;;;;;;;;;;;;;5017036;28;19952;-28
2022/08/08 03:20:49;;;;;;;;;;;;;;;;;;5016638;28;20320;-28
2022/08/08 03:23:16;;;;;;;;;;;;;;;;;;5016541;28;19976;-28
2022/08/08 03:25:42;;;;;;;;;;;;;;;;;;5016595;28;19926;-28
2022/08/08 03:28:08;;;;;;;;;;;;;;;;;;5016534;28;20329;-28
2022/08/08 03:30:34;;;;;;;;;;;;;;;;;;5016764;28;19914;-28
2022/08/08 03:33:18;;;;;;;;;;;;;;;;;;5016498;28;20253;-28
2022/08/08 03:35:44;;;;;;;;;;;;;;;;;;5016435;28;19909;-28
2022/08/08 03:38:10;;;;;;;;;;;;;;;;;;5016385;28;19913;-28
2022/08/08 03:40:36;;;;;;;;;;;;;;;;;;5016573;28;19914;-28
2022/08/08 03:43:02;;;;;;;;;;;;;;;;;;5016401;28;19927;-27
2022/08/08 03:45:28;;;;;;;;;;;;;;;;;;5016128;28;19914;-27
2022/08/08 03:47:55;;;;;;;;;;;;;;;;;;5016463;28;20299;-27
2022/08/08 03:50:21;;;;;;;;;;;;;;;;;;5015782;28;19976;-27
2022/08/08 03:52:47;;;;;;;;;;;;;;;;;;5015913;28;19913;-27
2022/08/08 03:55:13;;;;;;;;;;;;;;;;;;5016056;28;19976;-27
2022/08/08 03:57:39;;;;;;;;;;;;;;;;;;5016259;28;19913;-28
2022/08/08 04:00:05;;;;;;;;;;;;;;;;;;5015972;28;19920;-27
2022/08/08 04:02:31;;;;;;;;;;;;;;;;;;5015390;28;20356;-28
2022/08/08 04:04:57;;;;;;;;;;;;;;;;;;5016104;28;19920;-28
2022/08/08 04:07:23;;;;;;;;;;;;;;;;;;5015675;28;19914;-28
2022/08/08 04:09:49;;;;;;;;;;;;;;;;;;5016518;28;19941;-28
2022/08/08 04:12:15;;;;;;;;;;;;;;;;;;5015515;28;19963;-28
2022/08/08 04:14:41;;;;;;;;;;;;;;;;;;5015937;28;19924;-28
2022/08/08 04:17:07;;;;;;;;;;;;;;;;;;5015594;28;19913;-28
2022/08/08 04:19:33;;;;;;;;;;;;;;;;;;5016084;28;20214;-28
2022/08/08 04:21:59;;;;;;;;;;;;;;;;;;5015379;28;20013;-28
2022/08/08 04:24:25;;;;;;;;;;;;;;;;;;5015467;28;19913;-28
2022/08/08 04:26:51;;;;;;;;;;;;;;;;;;5015726;28;19905;-28
2022/08/08 04:29:17;;;;;;;;;;;;;;;;;;5015471;28;19921;-28
2022/08/08 04:31:43;;;;;;;;;;;;;;;;;;5015353;28;19905;-28
2022/08/08 04:34:09;;;;;;;;;;;;;;;;;;5015329;28;19913;-28
2022/08/08 04:36:35;;;;;;;;;;;;;;;;;;5015276;28;19972;-28
2022/08/08 04:39:02;;;;;;;;;;;;;;;;;;5015268;28;20332;-28
2022/08/08 04:41:28;;;;;;;;;;;;;;;;;;5015314;28;19928;-28
2022/08/08 04:43:54;;;;;;;;;;;;;;;;;;5015088;28;19925;-27
2022/08/08 04:46:20;;;;;;;;;;;;;;;;;;5015117;28;19924;-28
2022/08/08 04:48:46;;;;;;;;;;;;;;;;;;5015337;28;19909;-28
2022/08/08 04:51:12;;;;;;;;;;;;;;;;;;5015355;28;19917;-28
2022/08/08 04:53:38;;;;;;;;;;;;;;;;;;5015336;28;19976;-28
2022/08/08 04:56:04;;;;;;;;;;;;;;;;;;5015003;28;20004;-28
2022/08/08 04:58:30;;;;;;;;;;;;;;;;;;5015038;28;19963;-28
2022/08/08 05:00:56;;;;;;;;;;;;;;;;;;5016602;28;19997;-28
2022/08/08 05:03:22;;;;;;;;;;;;;;;;;;5018933;28;19925;-28
2022/08/08 05:05:48;;;;;;;;;;;;;;;;;;5018946;28;20248;-28
2022/08/08 05:08:14;;;;;;;;;;;;;;;;;;5018917;28;19936;-28
2022/08/08 05:10:40;;;;;;;;;;;;;;;;;;5018853;28;19913;-28
2022/08/08 05:13:06;;;;;;;;;;;;;;;;;;5018817;28;19920;-28
2022/08/08 05:15:32;;;;;;;;;;;;;;;;;;5018905;28;19979;-28
2022/08/08 05:17:58;;;;;;;;;;;;;;;;;;5019073;28;20008;-28
2022/08/08 05:20:24;;;;;;;;;;;;;;;;;;5018693;28;20383;-28
2022/08/08 05:22:50;;;;;;;;;;;;;;;;;;5018834;28;19927;-28
2022/08/08 05:25:16;;;;;;;;;;;;;;;;;;5018722;28;19909;-28
2022/08/08 05:27:42;;;;;;;;;;;;;;;;;;5018601;28;19920;-28
2022/08/08 05:30:09;;;;;;;;;;;;;;;;;;5018885;28;19913;-28
2022/08/08 05:32:35;;;;;;;;;;;;;;;;;;5018552;28;20276;-28
2022/08/08 05:35:01;;;;;;;;;;;;;;;;;;5018489;28;20399;-28
2022/08/08 05:37:30;;;;;;;;;;;;;;;;;;5018480;28;19913;-28
2022/08/08 05:39:56;;;;;;;;;;;;;;;;;;5018383;28;19914;-28
2022/08/08 05:42:22;;;;;;;;;;;;;;;;;;5018309;28;19917;-28
2022/08/08 05:44:48;;;;;;;;;;;;;;;;;;5018294;28;20002;-28
2022/08/08 05:47:15;;;;;;;;;;;;;;;;;;5018197;28;20016;-28
2022/08/08 05:49:43;;;;;;;;;;;;;;;;;;5018173;28;19974;-28
2022/08/08 05:52:09;;;;;;;;;;;;;;;;;;5018167;28;19910;-28
2022/08/08 05:54:35;;;;;;;;;;;;;;;;;;5018267;28;19996;-28
2022/08/08 05:57:01;;;;;;;;;;;;;;;;;;5018352;28;20353;-28
2022/08/08 05:59:27;;;;;;;;;;;;;;;;;;5018071;28;20004;-27
2022/08/08 06:04:44;;;;;;;;;;;;;;;;;;5016758;28;20358;-26
2022/08/08 06:07:10;;;;;;;;;;;;;;;;;;5018034;28;19914;-26
2022/08/08 06:09:38;;;;;;;;;;;;;;;;;;5017847;28;20229;-26
2022/08/08 06:12:04;;;;;;;;;;;;;;;;;;5017232;28;20348;-26
2022/08/08 06:14:30;;;;;;;;;;;;;;;;;;5017844;28;19975;-26
2022/08/08 06:16:56;;;;;;;;;;;;;;;;;;5017755;28;20233;-26
2022/08/08 06:19:22;;;;;;;;;;;;;;;;;;5018220;28;19913;-26
2022/08/08 06:21:48;;;;;;;;;;;;;;;;;;5017492;28;20241;-26
2022/08/08 06:24:14;;;;;;;;;;;;;;;;;;5018116;28;19913;-26
2022/08/08 06:26:42;;;;;;;;;;;;;;;;;;5017576;28;19969;-26
2022/08/08 06:29:08;;;;;;;;;;;;;;;;;;5017476;28;19921;-26
2022/08/08 06:31:34;;;;;;;;;;;;;;;;;;5017484;28;20004;-26
2022/08/08 06:34:00;;;;;;;;;;;;;;;;;;5017345;28;19914;-26
2022/08/08 06:36:27;;;;;;;;;;;;;;;;;;5017382;28;20248;-26
2022/08/08 06:38:53;;;;;;;;;;;;;;;;;;5017519;28;20352;-26
2022/08/08 06:41:19;;;;;;;;;;;;;;;;;;5017191;28;19996;-26
2022/08/08 06:43:45;;;;;;;;;;;;;;;;;;5017380;28;19967;-26
2022/08/08 06:46:11;;;;;;;;;;;;;;;;;;5017093;28;19909;-26
2022/08/08 06:48:37;;;;;;;;;;;;;;;;;;5017035;28;19937;-26
2022/08/08 06:51:03;;;;;;;;;;;;;;;;;;5017138;28;19964;-26
2022/08/08 06:53:30;;;;;;;;;;;;;;;;;;5016846;28;19989;-27
2022/08/08 06:55:56;;;;;;;;;;;;;;;;;;5017114;28;20292;-27
2022/08/08 06:58:22;;;;;;;;;;;;;;;;;;5017287;28;19910;-27
2022/08/08 07:00:48;;;;;;;;;;;;;;;;;;5017134;28;20271;-25
2022/08/08 07:03:14;;;;;;;;;;;;;;;;;;5016759;28;19918;-25
2022/08/08 07:05:40;;;;;;;;;;;;;;;;;;5016870;28;19914;-25
2022/08/08 07:08:06;;;;;;;;;;;;;;;;;;5017295;28;19913;-26
2022/08/08 07:10:32;;;;;;;;;;;;;;;;;;5017051;28;20356;-26
2022/08/08 07:12:58;;;;;;;;;;;;;;;;;;5016576;28;20367;-26
2022/08/08 07:15:25;;;;;;;;;;;;;;;;;;5016540;28;19914;-26
2022/08/08 07:17:51;;;;;;;;;;;;;;;;;;5015572;28;20007;-27
2022/08/08 07:20:17;;;;;;;;;;;;;;;;;;5016429;28;19913;-26
2022/08/08 07:22:43;;;;;;;;;;;;;;;;;;5016296;28;19917;-26
2022/08/08 07:25:10;;;;;;;;;;;;;;;;;;5015435;28;19917;-26
2022/08/08 07:27:39;;;;;;;;;;;;;;;;;;5016894;28;19971;-26
2022/08/08 07:30:05;;;;;;;;;;;;;;;;;;5016276;28;20263;-27
2022/08/08 07:32:31;;;;;;;;;;;;;;;;;;5016201;28;20345;-26
2022/08/08 07:34:57;;;;;;;;;;;;;;;;;;5016204;28;19920;-26
2022/08/08 07:37:23;;;;;;;;;;;;;;;;;;5016137;28;19916;-27
2022/08/08 07:39:49;;;;;;;;;;;;;;;;;;5016088;28;19917;-26
2022/08/08 07:42:16;;;;;;;;;;;;;;;;;;5015943;28;19913;-27
2022/08/08 07:44:42;;;;;;;;;;;;;;;;;;5015991;28;19913;-27
2022/08/08 07:47:08;;;;;;;;;;;;;;;;;;5015925;28;19917;-27
2022/08/08 07:49:34;;;;;;;;;;;;;;;;;;5016150;28;19972;-26
2022/08/08 07:52:00;;;;;;;;;;;;;;;;;;5016024;28;20427;-27
2022/08/08 07:54:26;;;;;;;;;;;;;;;;;;5015762;28;20332;-27
2022/08/08 07:56:54;;;;;;;;;;;;;;;;;;5015865;28;19913;-27
2022/08/08 07:59:20;;;;;;;;;;;;;;;;;;5015747;28;19921;-26
2022/08/08 08:01:46;;;;;;;;;;;;;;;;;;5015645;28;19979;-27
2022/08/08 08:04:12;;;;;;;;;;;;;;;;;;5015654;28;19917;-27
2022/08/08 08:06:38;;;;;;;;;;;;;;;;;;5016025;28;20307;-26
2022/08/08 08:09:04;;;;;;;;;;;;;;;;;;5015635;28;19945;-27
2022/08/08 08:11:30;;;;;;;;;;;;;;;;;;5016168;28;19909;-27
2022/08/08 08:13:56;;;;;;;;;;;;;;;;;;5015550;28;20340;-27
2022/08/08 08:16:22;;;;;;;;;;;;;;;;;;5015602;28;19948;-27
2022/08/08 08:18:48;;;;;;;;;;;;;;;;;;5015629;28;19914;-27
2022/08/08 08:21:14;;;;;;;;;;;;;;;;;;5015425;28;19925;-27
2022/08/08 08:23:40;;;;;;;;;;;;;;;;;;5015638;28;19914;-27
2022/08/08 08:26:06;;;;;;;;;;;;;;;;;;5015306;28;19925;-27
2022/08/08 08:28:32;;;;;;;;;;;;;;;;;;5015288;28;20012;-27
2022/08/08 08:31:03;;;;;;;;;;;;;;;;;;5015600;28;19952;-27
2022/08/08 08:33:29;;;;;;;;;;;;;;;;;;5015158;28;19917;-27
2022/08/08 08:35:55;;;;;;;;;;;;;;;;;;5015174;28;20001;-27
2022/08/08 08:38:21;;;;;;;;;;;;;;;;;;5015793;28;19913;-27
2022/08/08 08:40:47;;;;;;;;;;;;;;;;;;5015357;28;19933;-27
2022/08/08 08:43:13;;;;;;;;;;;;;;;;;;5015155;28;19980;-27
2022/08/08 08:45:39;;;;;;;;;;;;;;;;;;5015242;28;19944;-27
2022/08/08 08:48:05;;;;;;;;;;;;;;;;;;5015255;28;19924;-27
2022/08/08 08:50:31;;;;;;;;;;;;;;;;;;5015265;28;19913;-27
2022/08/08 08:52:57;;;;;;;;;;;;;;;;;;5015703;28;19924;-27
2022/08/08 08:55:23;;;;;;;;;;;;;;;;;;5015436;28;19913;-27
2022/08/08 08:57:49;;;;;;;;;;;;;;;;;;5015201;28;19914;-27
2022/08/08 09:00:15;;;;;;;;;;;;;;;;;;5015034;28;19920;-27
2022/08/08 09:02:42;;;;;;;;;;;;;;;;;;5014881;28;19917;-27
2022/08/08 09:05:08;;;;;;;;;;;;;;;;;;5014932;28;19937;-27
2022/08/08 09:07:34;;;;;;;;;;;;;;;;;;5015011;28;19981;-27
2022/08/08 09:10:01;;;;;;;;;;;;;;;;;;5015863;28;19916;-27
2022/08/08 09:12:27;;;;;;;;;;;;;;;;;;5014890;28;19917;-27
2022/08/08 09:14:53;;;;;;;;;;;;;;;;;;5014887;28;19996;-27
2022/08/08 09:17:19;;;;;;;;;;;;;;;;;;5014851;28;19983;-27
2022/08/08 09:19:45;;;;;;;;;;;;;;;;;;5014772;28;19996;-27
2022/08/08 09:22:11;;;;;;;;;;;;;;;;;;5015017;28;20008;-27
2022/08/08 09:24:37;;;;;;;;;;;;;;;;;;5015361;28;19921;-27
2022/08/08 09:27:06;;;;;;;;;;;;;;;;;;5014761;28;19909;-27
2022/08/08 09:29:32;;;;;;;;;;;;;;;;;;5014668;28;19956;-27
2022/08/08 09:31:58;;;;;;;;;;;;;;;;;;5014670;28;19967;-27
2022/08/08 09:34:25;;;;;;;;;;;;;;;;;;5014608;28;20412;-27
2022/08/08 09:36:51;;;;;;;;;;;;;;;;;;5015264;28;19920;-26
2022/08/08 09:39:17;;;;;;;;;;;;;;;;;;5014649;28;19913;-26
2022/08/08 09:41:43;;;;;;;;;;;;;;;;;;5014450;28;19918;-27
2022/08/08 09:44:09;;;;;;;;;;;;;;;;;;5014903;28;20267;-26
2022/08/08 09:46:34;;;;;;;;;;;;;;;;;;5014830;28;19905;-26
2022/08/08 09:49:00;;;;;;;;;;;;;;;;;;5017916;28;19949;-26
2022/08/08 09:51:26;;;;;;;;;;;;;;;;;;5018504;28;19910;-26
2022/08/08 09:53:52;;;;;;;;;;;;;;;;;;5018370;28;19921;-26
2022/08/08 09:56:18;;;;;;;;;;;;;;;;;;5018110;28;20272;-27
2022/08/08 09:58:44;;;;;;;;;;;;;;;;;;5017133;28;19971;-27
2022/08/08 10:01:10;;;;;;;;;;;;;;;;;;5017952;28;19941;-27
2022/08/08 10:03:36;;;;;;;;;;;;;;;;;;5017759;28;19976;-27
2022/08/08 10:06:02;;;;;;;;;;;;;;;;;;5018281;28;19960;-27
2022/08/08 10:08:28;;;;;;;;;;;;;;;;;;5017938;28;19921;-27
2022/08/08 10:10:54;;;;;;;;;;;;;;;;;;5018339;28;20344;-27
2022/08/08 10:13:20;;;;;;;;;;;;;;;;;;5017942;28;19931;-27
2022/08/08 10:15:46;;;;;;;;;;;;;;;;;;5018051;28;19913;-27
2022/08/08 10:18:12;;;;;;;;;;;;;;;;;;5017937;28;20280;-27
2022/08/08 10:20:39;;;;;;;;;;;;;;;;;;5017679;28;19921;-27
2022/08/08 10:23:04;;;;;;;;;;;;;;;;;;5017360;28;20004;-26
2022/08/08 10:25:30;;;;;;;;;;;;;;;;;;5017832;28;19944;-26
2022/08/08 10:27:56;;;;;;;;;;;;;;;;;;5017499;28;19917;-27
2022/08/08 10:30:22;;;;;;;;;;;;;;;;;;5017263;28;19913;-26
2022/08/08 10:32:48;;;;;;;;;;;;;;;;;;5017529;28;19959;-26
2022/08/08 10:35:14;;;;;;;;;;;;;;;;;;5017831;28;20334;-26
2022/08/08 10:37:40;;;;;;;;;;;;;;;;;;5017114;28;19914;-26
2022/08/08 10:40:06;;;;;;;;;;;;;;;;;;5017250;28;19971;-26
2022/08/08 10:42:33;;;;;;;;;;;;;;;;;;5017381;28;19992;-26
2022/08/08 10:44:59;;;;;;;;;;;;;;;;;;5017111;28;20071;-26
2022/08/08 10:47:25;;;;;;;;;;;;;;;;;;5017091;28;20260;-26
2022/08/08 10:49:51;;;;;;;;;;;;;;;;;;5017561;28;19909;-26
2022/08/08 10:52:17;;;;;;;;;;;;;;;;;;5017157;28;19913;-26
2022/08/08 10:54:43;;;;;;;;;;;;;;;;;;5017180;28;20225;-27
2022/08/08 10:57:09;;;;;;;;;;;;;;;;;;5016978;28;19924;-27
2022/08/08 10:59:35;;;;;;;;;;;;;;;;;;5016850;28;20004;-27
2022/08/08 11:02:01;;;;;;;;;;;;;;;;;;5016809;28;19917;-27
2022/08/08 11:04:27;;;;;;;;;;;;;;;;;;5016858;28;20016;-28
2022/08/08 11:06:53;;;;;;;;;;;;;;;;;;5016811;28;20013;-28
2022/08/08 11:09:19;;;;;;;;;;;;;;;;;;5016691;28;19913;-27
2022/08/08 11:11:45;;;;;;;;;;;;;;;;;;5016578;28;19925;-27
2022/08/08 11:14:11;;;;;;;;;;;;;;;;;;5016885;28;20233;-27
2022/08/08 11:16:38;;;;;;;;;;;;;;;;;;5016612;28;19933;-27
2022/08/08 11:19:04;;;;;;;;;;;;;;;;;;5016467;28;19989;-26
2022/08/08 11:21:33;;;;;;;;;;;;;;;;;;5016653;28;19933;-27
2022/08/08 11:23:59;;;;;;;;;;;;;;;;;;5016295;28;19924;-27
2022/08/08 11:26:25;;;;;;;;;;;;;;;;;;5016473;28;20268;-27
2022/08/08 11:28:51;;;;;;;;;;;;;;;;;;5016915;28;19972;-27
2022/08/08 11:31:17;;;;;;;;;;;;;;;;;;5016516;28;19920;-27
2022/08/08 11:33:43;;;;;;;;;;;;;;;;;;5016096;28;19913;-27
2022/08/08 11:36:09;;;;;;;;;;;;;;;;;;5016181;28;19925;-27
2022/08/08 11:38:35;;;;;;;;;;;;;;;;;;5016289;28;20252;-27
2022/08/08 11:41:01;;;;;;;;;;;;;;;;;;5016062;28;19913;-27
2022/08/08 11:43:29;;;;;;;;;;;;;;;;;;5016275;28;19910;-27
2022/08/08 11:45:55;;;;;;;;;;;;;;;;;;5015989;28;20399;-27
2022/08/08 11:48:21;;;;;;;;;;;;;;;;;;5015974;28;19914;-27
2022/08/08 11:50:47;;;;;;;;;;;;;;;;;;5015974;28;20237;-27
2022/08/08 11:53:13;;;;;;;;;;;;;;;;;;5015991;28;19921;-27
2022/08/08 11:55:39;;;;;;;;;;;;;;;;;;5016398;28;19917;-27
2022/08/08 11:58:05;;;;;;;;;;;;;;;;;;5016352;28;19909;-27
2022/08/08 12:00:31;;;;;;;;;;;;;;;;;;5016066;28;20315;-27
2022/08/08 12:02:59;;;;;;;;;;;;;;;;;;5015595;28;19921;-27
2022/08/08 12:05:24;;;;;;;;;;;;;;;;;;5015967;28;19910;-27
2022/08/08 12:07:51;;;;;;;;;;;;;;;;;;5015761;28;20233;-27
2022/08/08 12:10:16;;;;;;;;;;;;;;;;;;5015241;28;20352;-27
2022/08/08 12:12:42;;;;;;;;;;;;;;;;;;5015846;28;19916;-27
2022/08/08 12:15:08;;;;;;;;;;;;;;;;;;5016144;28;19913;-27
2022/08/08 12:17:35;;;;;;;;;;;;;;;;;;5015578;28;19913;-27
2022/08/08 12:20:03;;;;;;;;;;;;;;;;;;5015968;28;19909;-27
2022/08/08 12:22:30;;;;;;;;;;;;;;;;;;5015338;28;19925;-27
2022/08/08 12:24:56;;;;;;;;;;;;;;;;;;5015551;28;19913;-27
2022/08/08 12:27:22;;;;;;;;;;;;;;;;;;5015442;28;19925;-27
2022/08/08 12:29:48;;;;;;;;;;;;;;;;;;5015838;28;19919;-27
2022/08/08 12:32:14;;;;;;;;;;;;;;;;;;5015270;28;19910;-27
2022/08/08 12:34:41;;;;;;;;;;;;;;;;;;5015284;28;19920;-26
2022/08/08 12:37:07;;;;;;;;;;;;;;;;;;5015188;28;19921;-26
2022/08/08 12:39:33;;;;;;;;;;;;;;;;;;5015271;28;19917;-27
2022/08/08 12:41:59;;;;;;;;;;;;;;;;;;5015494;28;19972;-27
2022/08/08 12:44:25;;;;;;;;;;;;;;;;;;5015183;28;20374;-27
2022/08/08 12:46:51;;;;;;;;;;;;;;;;;;5015402;28;19917;-27
2022/08/08 12:49:17;;;;;;;;;;;;;;;;;;5015679;28;19917;-27
2022/08/08 12:51:43;;;;;;;;;;;;;;;;;;5014934;28;20393;-27
2022/08/08 12:54:09;;;;;;;;;;;;;;;;;;5015361;28;20245;-27
2022/08/08 12:56:35;;;;;;;;;;;;;;;;;;5015653;28;19921;-27
2022/08/08 12:59:01;;;;;;;;;;;;;;;;;;5015102;28;20016;-27
2022/08/08 13:01:27;;;;;;;;;;;;;;;;;;5014951;28;20356;-27
2022/08/08 13:03:53;;;;;;;;;;;;;;;;;;5014859;28;19928;-27
2022/08/08 13:06:19;;;;;;;;;;;;;;;;;;5015017;28;19918;-27
2022/08/08 13:08:45;;;;;;;;;;;;;;;;;;5014905;28;19914;-27
2022/08/08 13:11:11;;;;;;;;;;;;;;;;;;5015241;28;19919;-27
2022/08/08 13:13:39;;;;;;;;;;;;;;;;;;5014311;28;20212;-26
2022/08/08 13:16:05;;;;;;;;;;;;;;;;;;5014838;28;19952;-27
2022/08/08 13:18:31;;;;;;;;;;;;;;;;;;5014726;28;20272;-27
2022/08/08 13:20:57;;;;;;;;;;;;;;;;;;5014993;28;19992;-27
2022/08/08 13:23:23;;;;;;;;;;;;;;;;;;5016710;28;20356;-27
2022/08/08 13:25:49;;;;;;;;;;;;;;;;;;5018845;28;19971;-27
2022/08/08 13:28:15;;;;;;;;;;;;;;;;;;5018781;28;19918;-26
2022/08/08 13:30:41;;;;;;;;;;;;;;;;;;5018400;28;20403;-27
2022/08/08 13:33:07;;;;;;;;;;;;;;;;;;5018389;28;19944;-26
2022/08/08 13:35:33;;;;;;;;;;;;;;;;;;5018813;28;19913;-27
2022/08/08 13:37:59;;;;;;;;;;;;;;;;;;5018771;28;19948;-26
2022/08/08 13:40:25;;;;;;;;;;;;;;;;;;5018761;28;20252;-26
2022/08/08 13:42:51;;;;;;;;;;;;;;;;;;5018568;28;20359;-26
2022/08/08 13:45:17;;;;;;;;;;;;;;;;;;5018884;28;19937;-26
2022/08/08 13:47:43;;;;;;;;;;;;;;;;;;5018284;28;20293;-26
2022/08/08 13:50:09;;;;;;;;;;;;;;;;;;5019003;28;19929;-28
2022/08/08 13:52:35;;;;;;;;;;;;;;;;;;5018373;28;19913;-26
2022/08/08 13:55:01;;;;;;;;;;;;;;;;;;5017035;28;19975;-27
2022/08/08 13:57:28;;;;;;;;;;;;;;;;;;5018086;28;19909;-26
2022/08/08 13:59:54;;;;;;;;;;;;;;;;;;5017963;28;19968;-26
2022/08/08 14:02:19;;;;;;;;;;;;;;;;;;5017731;28;19925;-26
2022/08/08 14:04:45;;;;;;;;;;;;;;;;;;5018277;28;20226;-26
2022/08/08 14:07:11;;;;;;;;;;;;;;;;;;5018016;28;19937;-26
2022/08/08 14:09:39;;;;;;;;;;;;;;;;;;5017933;28;19975;-26
2022/08/08 14:12:05;;;;;;;;;;;;;;;;;;5017720;28;19913;-26
2022/08/08 14:14:31;;;;;;;;;;;;;;;;;;5017922;28;19921;-26
2022/08/08 14:16:57;;;;;;;;;;;;;;;;;;5017843;28;20004;-26
2022/08/08 14:19:23;;;;;;;;;;;;;;;;;;5017830;28;19957;-27
2022/08/08 14:21:49;;;;;;;;;;;;;;;;;;5017615;28;20419;-26
2022/08/08 14:24:15;;;;;;;;;;;;;;;;;;5017971;28;20013;-26
2022/08/08 14:26:43;;;;;;;;;;;;;;;;;;5018156;28;19924;-26
2022/08/08 14:29:10;;;;;;;;;;;;;;;;;;5017791;28;19914;-26
2022/08/08 14:31:35;;;;;;;;;;;;;;;;;;5018062;28;19967;-27
2022/08/08 14:34:01;;;;;;;;;;;;;;;;;;5016930;28;20341;-26
2022/08/08 14:36:28;;;;;;;;;;;;;;;;;;5017748;28;20248;-27
2022/08/08 14:38:54;;;;;;;;;;;;;;;;;;5017976;28;20252;-27
2022/08/08 14:41:20;;;;;;;;;;;;;;;;;;5017249;28;19917;-26
2022/08/08 14:43:46;;;;;;;;;;;;;;;;;;5017214;28;20264;-26
2022/08/08 14:46:12;;;;;;;;;;;;;;;;;;5017358;28;19975;-26
2022/08/08 14:48:38;;;;;;;;;;;;;;;;;;5017385;28;20005;-27
2022/08/08 14:51:04;;;;;;;;;;;;;;;;;;5017853;28;19920;-27
2022/08/08 14:53:30;;;;;;;;;;;;;;;;;;5017400;28;19914;-26
2022/08/08 14:55:56;;;;;;;;;;;;;;;;;;5017437;28;20252;-26
2022/08/08 14:58:22;;;;;;;;;;;;;;;;;;5017100;28;19914;-26
2022/08/08 15:00:48;;;;;;;;;;;;;;;;;;5017044;28;19920;-27
2022/08/08 15:03:14;;;;;;;;;;;;;;;;;;5016502;28;19921;-27
2022/08/08 15:05:41;;;;;;;;;;;;;;;;;;5016898;28;19910;-26
2022/08/08 15:08:07;;;;;;;;;;;;;;;;;;5016811;28;19921;-27
2022/08/08 15:10:32;;;;;;;;;;;;;;;;;;5017499;28;19909;-27
2022/08/08 15:12:59;;;;;;;;;;;;;;;;;;5016771;28;19914;-26
2022/08/08 15:15:26;;;;;;;;;;;;;;;;;;5017393;28;20020;-26
2022/08/08 15:17:52;;;;;;;;;;;;;;;;;;5017041;28;19917;-26
2022/08/08 15:20:18;;;;;;;;;;;;;;;;;;5016724;28;19917;-26
2022/08/08 15:22:44;;;;;;;;;;;;;;;;;;5016576;28;19917;-26
2022/08/08 15:25:11;;;;;;;;;;;;;;;;;;5016673;28;19914;-27
2022/08/08 15:27:37;;;;;;;;;;;;;;;;;;5016637;28;20288;-27
2022/08/08 15:30:03;;;;;;;;;;;;;;;;;;5016854;28;19920;-27
2022/08/08 15:32:29;;;;;;;;;;;;;;;;;;5016389;28;19918;-26
2022/08/08 15:34:55;;;;;;;;;;;;;;;;;;5016470;28;20327;-26
2022/08/08 15:37:21;;;;;;;;;;;;;;;;;;5016368;28;20007;-26
2022/08/08 15:39:47;;;;;;;;;;;;;;;;;;5016837;28;19915;-27
2022/08/08 15:42:13;;;;;;;;;;;;;;;;;;5015163;28;20359;-26
2022/08/08 15:44:39;;;;;;;;;;;;;;;;;;5016474;28;19913;-26
2022/08/08 15:47:08;;;;;;;;;;;;;;;;;;5015746;28;19913;-26
2022/08/08 15:49:34;;;;;;;;;;;;;;;;;;5016506;28;20251;-27
2022/08/08 15:52:00;;;;;;;;;;;;;;;;;;5016351;28;19914;-26
2022/08/08 15:54:26;;;;;;;;;;;;;;;;;;5016657;28;19918;-26
2022/08/08 15:56:52;;;;;;;;;;;;;;;;;;5016092;28;20248;-26
2022/08/08 15:59:18;;;;;;;;;;;;;;;;;;5016033;28;20079;-26
2022/08/08 16:01:44;;;;;;;;;;;;;;;;;;5015765;28;19924;-26
2022/08/08 16:04:10;;;;;;;;;;;;;;;;;;5015762;28;19928;-26
2022/08/08 16:06:36;;;;;;;;;;;;;;;;;;5015882;28;19905;-26
2022/08/08 16:09:02;;;;;;;;;;;;;;;;;;5015861;28;19971;-27
2022/08/08 16:11:28;;;;;;;;;;;;;;;;;;5016044;28;20303;-28
2022/08/08 16:13:54;;;;;;;;;;;;;;;;;;5015675;28;19909;-27
2022/08/08 16:16:20;;;;;;;;;;;;;;;;;;5015659;28;19910;-27
2022/08/08 16:18:46;;;;;;;;;;;;;;;;;;5015706;28;19920;-27
2022/08/08 16:21:12;;;;;;;;;;;;;;;;;;5016161;28;20324;-27
2022/08/08 16:23:38;;;;;;;;;;;;;;;;;;5015558;28;19913;-27
2022/08/08 16:26:04;;;;;;;;;;;;;;;;;;5015775;28;19914;-27
2022/08/08 16:28:30;;;;;;;;;;;;;;;;;;5015574;28;19914;-27
2022/08/08 16:30:56;;;;;;;;;;;;;;;;;;5015519;28;20360;-27
2022/08/08 16:33:22;;;;;;;;;;;;;;;;;;5015457;28;19920;-27
2022/08/08 16:35:48;;;;;;;;;;;;;;;;;;5015503;28;19913;-27
2022/08/08 16:38:14;;;;;;;;;;;;;;;;;;5015394;28;20292;-27
2022/08/08 16:40:40;;;;;;;;;;;;;;;;;;5015350;28;19929;-27
2022/08/08 16:43:07;;;;;;;;;;;;;;;;;;5015530;28;19913;-28
2022/08/08 16:45:33;;;;;;;;;;;;;;;;;;5015661;28;19913;-27